Time;durP1;ratioP1;P1;durP2;ratioP2;P2;SDS_P1;SDS_P2;PMS_P1;PMS_P2;Temp;Humidity;BMP_temperature;BMP_pressure;BME280_temperature;BME280_humidity;BME280_pressure;Samples;Min_cycle;Max_cycle;Signal;HPM_P1;HPM_P2
2024/02/29 00:00:32;;;;;;;;;;;;;;;-146.32;100.00;63746.28;4172468;28;20032;-70
2024/02/29 00:02:34;;;;;;;;;;;;;;;-146.32;100.00;63746.28;4172155;28;20194;-69
2024/02/29 00:04:36;;;;;;;;;;;;;;;-146.32;100.00;63746.28;4172319;28;20011;-69
2024/02/29 00:06:38;;;;;;;;;;;;;;;-146.32;100.00;63746.28;4170592;28;20019;-69
2024/02/29 00:08:40;;;;;;;;;;;;;;;-146.32;100.00;63746.28;4172125;28;20008;-69
2024/02/29 00:10:42;;;;;;;;;;;;;;;-146.32;100.00;63746.28;4170664;28;20024;-69
2024/02/29 00:12:44;;;;;;;;;;;;;;;-146.32;100.00;63746.28;4171236;28;20019;-69
2024/02/29 00:14:47;;;;;;;;;;;;;;;-146.32;100.00;63746.28;4172435;28;20048;-69
2024/02/29 00:16:50;;;;;;;;;;;;;;;-146.32;100.00;63746.28;4171648;28;20011;-70
2024/02/29 00:18:52;;;;;;;;;;;;;;;-146.32;100.00;63746.28;4170648;28;20024;-69
2024/02/29 00:20:54;;;;;;;;;;;;;;;-146.32;100.00;63746.28;4171324;28;20019;-69
2024/02/29 00:22:56;;;;;;;;;;;;;;;-146.32;100.00;63746.28;4171300;28;20027;-69
2024/02/29 00:24:58;;;;;;;;;;;;;;;-146.32;100.00;63746.28;4171688;28;20020;-69
2024/02/29 00:26:59;;;;;;;;;;;;;;;-146.32;100.00;63746.28;4171398;28;20020;-69
2024/02/29 00:29:02;;;;;;;;;;;;;;;-146.32;100.00;63746.28;4171986;28;20015;-69
2024/02/29 00:31:05;;;;;;;;;;;;;;;-146.32;100.00;63746.28;4171661;28;20019;-69
2024/02/29 00:33:06;;;;;;;;;;;;;;;-146.32;100.00;63746.28;4170026;28;20044;-69
2024/02/29 00:35:09;;;;;;;;;;;;;;;-146.32;100.00;63746.28;4171186;28;20386;-70
2024/02/29 00:37:10;;;;;;;;;;;;;;;-146.32;100.00;63746.28;4171381;28;20019;-69
2024/02/29 00:39:12;;;;;;;;;;;;;;;-146.32;100.00;63746.28;4170240;28;20027;-69
2024/02/29 00:41:15;;;;;;;;;;;;;;;-146.32;100.00;63746.28;4169958;28;20012;-69
2024/02/29 00:43:17;;;;;;;;;;;;;;;-146.32;100.00;63746.28;4170997;28;20036;-69
2024/02/29 00:45:19;;;;;;;;;;;;;;;-146.32;100.00;63746.28;4170726;28;20015;-69
2024/02/29 00:47:23;;;;;;;;;;;;;;;-146.32;100.00;63746.28;4169428;28;20599;-69
2024/02/29 00:49:25;;;;;;;;;;;;;;;-146.32;100.00;63746.28;4169311;28;20012;-69
2024/02/29 00:51:26;;;;;;;;;;;;;;;-146.32;100.00;63746.28;4170329;28;20019;-70
2024/02/29 00:53:28;;;;;;;;;;;;;;;-146.32;100.00;63746.28;4170140;28;20345;-69
2024/02/29 00:55:29;;;;;;;;;;;;;;;-146.32;100.00;63746.28;4171008;28;20023;-69
2024/02/29 00:57:31;;;;;;;;;;;;;;;-146.32;100.00;63746.28;4170670;28;20004;-69
2024/02/29 00:59:33;;;;;;;;;;;;;;;-146.32;100.00;63746.28;4170994;28;20012;-69
2024/02/29 01:01:35;;;;;;;;;;;;;;;-146.32;100.00;63746.28;4171710;28;20027;-69
2024/02/29 01:03:39;;;;;;;;;;;;;;;-146.32;100.00;63746.28;4171576;28;20008;-69
2024/02/29 01:05:41;;;;;;;;;;;;;;;-146.32;100.00;63746.28;4171361;28;20023;-69
2024/02/29 01:07:43;;;;;;;;;;;;;;;-146.32;100.00;63746.28;4171034;28;20150;-69
2024/02/29 01:09:44;;;;;;;;;;;;;;;-146.32;100.00;63746.28;4169692;28;20364;-69
2024/02/29 01:11:47;;;;;;;;;;;;;;;-146.32;100.00;63746.28;4169182;28;20035;-69
2024/02/29 01:13:49;;;;;;;;;;;;;;;-146.32;100.00;63746.28;4170113;28;20537;-70
2024/02/29 01:15:51;;;;;;;;;;;;;;;-146.32;100.00;63746.28;4170911;28;20015;-69
2024/02/29 01:17:52;;;;;;;;;;;;;;;-146.32;100.00;63746.28;4171027;28;20007;-70
2024/02/29 01:19:55;;;;;;;;;;;;;;;-146.32;100.00;63746.28;4170945;28;19928;-69
2024/02/29 01:21:58;;;;;;;;;;;;;;;-146.32;100.00;63746.28;4169770;28;20442;-69
2024/02/29 01:24:00;;;;;;;;;;;;;;;-146.32;100.00;63746.28;4170639;28;20470;-70
2024/02/29 01:26:03;;;;;;;;;;;;;;;-146.32;100.00;63746.28;4168980;28;20031;-69
2024/02/29 01:28:05;;;;;;;;;;;;;;;-146.32;100.00;63746.28;4170293;28;20457;-69
2024/02/29 01:30:07;;;;;;;;;;;;;;;-146.32;100.00;63746.28;4170283;28;20003;-69
2024/02/29 01:32:09;;;;;;;;;;;;;;;-146.32;100.00;63746.28;4137901;28;20347;-69
2024/02/29 01:34:11;;;;;;;;;;;;;;;-146.32;100.00;63746.28;4170380;28;20007;-69
2024/02/29 01:36:15;;;;;;;;;;;;;;;-146.32;100.00;63746.28;4137945;28;20008;-69
2024/02/29 01:38:16;;;;;;;;;;;;;;;-146.32;100.00;63746.28;4170821;28;20442;-70
2024/02/29 01:40:19;;;;;;;;;;;;;;;-146.32;100.00;63746.28;4167473;28;20028;-69
2024/02/29 01:42:21;;;;;;;;;;;;;;;-146.32;100.00;63746.28;4168973;28;20015;-69
2024/02/29 01:44:23;;;;;;;;;;;;;;;-146.32;100.00;63746.28;4169229;28;20015;-69
2024/02/29 01:46:25;;;;;;;;;;;;;;;-146.32;100.00;63746.28;4170222;28;20007;-69
2024/02/29 01:48:27;;;;;;;;;;;;;;;-146.32;100.00;63746.28;4170395;28;20059;-69
2024/02/29 01:50:28;;;;;;;;;;;;;;;-146.32;100.00;63746.28;4170044;28;20452;-69
2024/02/29 01:52:33;;;;;;;;;;;;;;;-146.32;100.00;63746.28;4170574;28;20019;-69
2024/02/29 01:54:35;;;;;;;;;;;;;;;-146.32;100.00;63746.28;4170226;28;20092;-69
2024/02/29 01:56:37;;;;;;;;;;;;;;;-146.32;100.00;63746.28;4173915;28;20020;-69
2024/02/29 01:58:38;;;;;;;;;;;;;;;-146.32;100.00;63746.28;4176409;28;20008;-69
2024/02/29 02:00:40;;;;;;;;;;;;;;;-146.32;100.00;63746.28;4175895;28;19980;-69
2024/02/29 02:02:42;;;;;;;;;;;;;;;-146.32;100.00;63746.28;4175739;28;20023;-69
2024/02/29 02:04:43;;;;;;;;;;;;;;;-146.32;100.00;63746.28;4142237;28;20430;-69
2024/02/29 02:06:45;;;;;;;;;;;;;;;-146.32;100.00;63746.28;4174048;28;20027;-69
2024/02/29 02:08:48;;;;;;;;;;;;;;;-146.32;100.00;63746.28;4174111;28;20015;-69
2024/02/29 02:10:51;;;;;;;;;;;;;;;-146.32;100.00;63746.28;4173451;28;20009;-69
2024/02/29 02:12:53;;;;;;;;;;;;;;;-146.32;100.00;63746.28;4173610;28;20012;-69
2024/02/29 02:14:54;;;;;;;;;;;;;;;-146.32;100.00;63746.28;4176719;28;20027;-70
2024/02/29 02:16:55;;;;;;;;;;;;;;;-146.32;100.00;63746.28;4175895;28;20452;-69
2024/02/29 02:18:57;;;;;;;;;;;;;;;-146.32;100.00;63746.28;4175935;28;20016;-69
2024/02/29 02:21:01;;;;;;;;;;;;;;;-146.32;100.00;63746.28;4175878;28;20023;-69
2024/02/29 02:23:03;;;;;;;;;;;;;;;-146.32;100.00;63746.28;4176200;28;20024;-70
2024/02/29 02:25:04;;;;;;;;;;;;;;;-146.32;100.00;63746.28;4175545;28;20035;-70
2024/02/29 02:27:06;;;;;;;;;;;;;;;-146.32;100.00;63746.28;4175692;28;20016;-69
2024/02/29 02:29:08;;;;;;;;;;;;;;;-146.32;100.00;63746.28;4175829;28;20015;-70
2024/02/29 02:31:10;;;;;;;;;;;;;;;-146.32;100.00;63746.28;4175921;28;20017;-69
2024/02/29 02:33:13;;;;;;;;;;;;;;;-146.32;100.00;63746.28;4157910;28;19964;-69
2024/02/29 02:35:15;;;;;;;;;;;;;;;-146.32;100.00;63746.28;4174546;28;20027;-69
2024/02/29 02:37:18;;;;;;;;;;;;;;;-146.32;100.00;63746.28;4175880;28;20426;-69
2024/02/29 02:39:20;;;;;;;;;;;;;;;-146.32;100.00;63746.28;4175733;28;20035;-70
2024/02/29 02:41:22;;;;;;;;;;;;;;;-146.32;100.00;63746.28;4174675;28;20024;-69
2024/02/29 02:43:24;;;;;;;;;;;;;;;-146.32;100.00;63746.28;4173585;28;20357;-69
2024/02/29 02:45:26;;;;;;;;;;;;;;;-146.32;100.00;63746.28;4175548;28;20015;-69
2024/02/29 02:47:27;;;;;;;;;;;;;;;-146.32;100.00;63746.28;4142743;28;20020;-69
2024/02/29 02:49:29;;;;;;;;;;;;;;;-146.32;100.00;63746.28;4175401;28;20310;-69
2024/02/29 02:51:31;;;;;;;;;;;;;;;-146.32;100.00;63746.28;4174223;28;20023;-69
2024/02/29 02:53:34;;;;;;;;;;;;;;;-146.32;100.00;63746.28;4176031;28;19983;-69
2024/02/29 02:55:36;;;;;;;;;;;;;;;-146.32;100.00;63746.28;4158903;28;20032;-69
2024/02/29 02:57:37;;;;;;;;;;;;;;;-146.32;100.00;63746.28;4175866;28;20055;-70
2024/02/29 02:59:39;;;;;;;;;;;;;;;-146.32;100.00;63746.28;4175279;28;20023;-69
2024/02/29 03:01:42;;;;;;;;;;;;;;;-146.32;100.00;63746.28;4175180;28;20035;-69
2024/02/29 03:03:44;;;;;;;;;;;;;;;-146.32;100.00;63746.28;4175762;28;20024;-70
2024/02/29 03:05:45;;;;;;;;;;;;;;;-146.32;100.00;63746.28;4175253;28;20020;-69
2024/02/29 03:07:48;;;;;;;;;;;;;;;-146.32;100.00;63746.28;4172809;28;20020;-69
2024/02/29 03:09:51;;;;;;;;;;;;;;;-146.32;100.00;63746.28;4173011;28;20027;-69
2024/02/29 03:11:52;;;;;;;;;;;;;;;-146.32;100.00;63746.28;4172553;28;20020;-70
2024/02/29 03:13:54;;;;;;;;;;;;;;;-146.32;100.00;63746.28;4171343;28;20012;-69
2024/02/29 03:15:56;;;;;;;;;;;;;;;-146.32;100.00;63746.28;4173032;28;20020;-69
2024/02/29 03:17:58;;;;;;;;;;;;;;;-146.32;100.00;63746.28;4171525;28;20012;-69
2024/02/29 03:20:08;;;;;;;;;;;;;;;-146.32;100.00;63746.28;4138942;28;20020;-70
2024/02/29 03:22:10;;;;;;;;;;;;;;;-146.32;100.00;63746.28;4172559;28;20024;-69
2024/02/29 03:24:12;;;;;;;;;;;;;;;-146.32;100.00;63746.28;4172203;28;20021;-69
2024/02/29 03:26:15;;;;;;;;;;;;;;;-146.32;100.00;63746.28;4139969;28;20012;-70
2024/02/29 03:28:17;;;;;;;;;;;;;;;-146.32;100.00;63746.28;4172197;28;20020;-69
2024/02/29 03:30:18;;;;;;;;;;;;;;;-146.32;100.00;63746.28;4172252;28;20023;-69
2024/02/29 03:32:20;;;;;;;;;;;;;;;-146.32;100.00;63746.28;4172031;28;19935;-69
2024/02/29 03:34:22;;;;;;;;;;;;;;;-146.32;100.00;63746.28;4172425;28;20019;-69
2024/02/29 03:36:24;;;;;;;;;;;;;;;-146.32;100.00;63746.28;4171904;28;20024;-70
2024/02/29 03:38:26;;;;;;;;;;;;;;;-146.32;100.00;63746.28;4172226;28;20032;-69
2024/02/29 03:40:28;;;;;;;;;;;;;;;-146.32;100.00;63746.28;4172015;28;20016;-69
2024/02/29 03:42:32;;;;;;;;;;;;;;;-146.32;100.00;63746.28;4171488;28;20015;-70
2024/02/29 03:44:34;;;;;;;;;;;;;;;-146.32;100.00;63746.28;4172669;28;20019;-69
2024/02/29 03:46:36;;;;;;;;;;;;;;;-146.32;100.00;63746.28;4139571;28;20039;-69
2024/02/29 03:48:38;;;;;;;;;;;;;;;-146.32;100.00;63746.28;4170341;28;20015;-69
2024/02/29 03:50:41;;;;;;;;;;;;;;;-146.32;100.00;63746.28;4170766;28;20553;-69
2024/02/29 03:52:43;;;;;;;;;;;;;;;-146.32;100.00;63746.28;4171556;28;20449;-70
2024/02/29 03:54:45;;;;;;;;;;;;;;;-146.32;100.00;63746.28;4171512;28;20868;-69
2024/02/29 03:56:47;;;;;;;;;;;;;;;-146.32;100.00;63746.28;4171448;28;20021;-69
2024/02/29 03:58:50;;;;;;;;;;;;;;;-146.32;100.00;63746.28;4171049;28;20015;-70
2024/02/29 04:00:51;;;;;;;;;;;;;;;-146.32;100.00;63746.28;4172293;28;20020;-69
2024/02/29 04:02:53;;;;;;;;;;;;;;;-146.32;100.00;63746.28;4171447;28;20049;-69
2024/02/29 04:04:55;;;;;;;;;;;;;;;-146.32;100.00;63746.28;4171665;28;20015;-69
2024/02/29 04:06:58;;;;;;;;;;;;;;;-146.32;100.00;63746.28;4170399;28;20012;-70
2024/02/29 04:08:59;;;;;;;;;;;;;;;-146.32;100.00;63746.28;4171777;28;20020;-70
2024/02/29 04:11:01;;;;;;;;;;;;;;;-146.32;100.00;63746.28;4171186;28;20036;-69
2024/02/29 04:13:02;;;;;;;;;;;;;;;-146.32;100.00;63746.28;4171141;28;20023;-69
2024/02/29 04:15:06;;;;;;;;;;;;;;;-146.32;100.00;63746.28;4172116;28;19925;-69
2024/02/29 04:17:08;;;;;;;;;;;;;;;-146.32;100.00;63746.28;4172222;28;20575;-69
2024/02/29 04:19:10;;;;;;;;;;;;;;;-146.32;100.00;63746.28;4171418;28;20419;-69
2024/02/29 04:21:12;;;;;;;;;;;;;;;-146.32;100.00;63746.28;4170112;28;20015;-69
2024/02/29 04:23:14;;;;;;;;;;;;;;;-146.32;100.00;63746.28;4171712;28;20024;-70
2024/02/29 04:25:16;;;;;;;;;;;;;;;-146.32;100.00;63746.28;4170754;28;20422;-70
2024/02/29 04:27:18;;;;;;;;;;;;;;;-146.32;100.00;63746.28;4171950;28;20028;-69
2024/02/29 04:29:19;;;;;;;;;;;;;;;-146.32;100.00;63746.28;4171543;28;20095;-70
2024/02/29 04:31:22;;;;;;;;;;;;;;;-146.32;100.00;63746.28;4169702;28;19928;-69
2024/02/29 04:33:24;;;;;;;;;;;;;;;-146.32;100.00;63746.28;4153406;28;20020;-69
2024/02/29 04:35:26;;;;;;;;;;;;;;;-146.32;100.00;63746.28;4171638;28;20460;-69
2024/02/29 04:37:28;;;;;;;;;;;;;;;-146.32;100.00;63746.28;4172107;28;20027;-69
2024/02/29 04:39:30;;;;;;;;;;;;;;;-146.32;100.00;63746.28;4171874;28;20020;-69
2024/02/29 04:41:32;;;;;;;;;;;;;;;-146.32;100.00;63746.28;4171706;28;20016;-69
2024/02/29 04:43:34;;;;;;;;;;;;;;;-146.32;100.00;63746.28;4169151;28;20024;-69
2024/02/29 04:45:36;;;;;;;;;;;;;;;-146.32;100.00;63746.28;4171479;28;20012;-70
2024/02/29 04:47:39;;;;;;;;;;;;;;;-146.32;100.00;63746.28;4170950;28;20028;-69
2024/02/29 04:49:41;;;;;;;;;;;;;;;-146.32;100.00;63746.28;4171513;28;20450;-69
2024/02/29 04:51:43;;;;;;;;;;;;;;;-146.32;100.00;63746.28;4171405;28;20372;-69
2024/02/29 04:53:45;;;;;;;;;;;;;;;-146.32;100.00;63746.28;4169997;28;20019;-69
2024/02/29 04:55:47;;;;;;;;;;;;;;;-146.32;100.00;63746.28;4170780;28;20019;-69
2024/02/29 04:57:49;;;;;;;;;;;;;;;-146.32;100.00;63746.28;4171146;28;19999;-69
2024/02/29 04:59:51;;;;;;;;;;;;;;;-146.32;100.00;63746.28;4168829;28;20031;-69
2024/02/29 05:01:53;;;;;;;;;;;;;;;-146.32;100.00;63746.28;4167610;28;20025;-69
2024/02/29 05:03:55;;;;;;;;;;;;;;;-146.32;100.00;63746.28;4169840;28;20028;-69
2024/02/29 05:05:57;;;;;;;;;;;;;;;-146.32;100.00;63746.28;4170736;28;20466;-69
2024/02/29 05:08:00;;;;;;;;;;;;;;;-146.32;100.00;63746.28;4167709;28;20019;-69
2024/02/29 05:10:02;;;;;;;;;;;;;;;-146.32;100.00;63746.28;4170372;28;20372;-70
2024/02/29 05:12:04;;;;;;;;;;;;;;;-146.32;100.00;63746.28;4170028;28;20015;-69
2024/02/29 05:14:05;;;;;;;;;;;;;;;-146.32;100.00;63746.28;4171028;28;20442;-69
2024/02/29 05:16:07;;;;;;;;;;;;;;;-146.32;100.00;63746.28;4170885;28;19929;-69
2024/02/29 05:18:09;;;;;;;;;;;;;;;-146.32;100.00;63746.28;4169800;28;20007;-69
2024/02/29 05:20:12;;;;;;;;;;;;;;;-146.32;100.00;63746.28;4170037;28;20016;-69
2024/02/29 05:22:14;;;;;;;;;;;;;;;-146.32;100.00;63746.28;4168653;28;20000;-69
2024/02/29 05:24:16;;;;;;;;;;;;;;;-146.32;100.00;63746.28;4168880;28;20380;-69
2024/02/29 05:26:18;;;;;;;;;;;;;;;-146.32;100.00;63746.28;4169530;28;20035;-69
2024/02/29 05:28:20;;;;;;;;;;;;;;;-146.32;100.00;63746.28;4169056;28;20027;-69
2024/02/29 05:30:22;;;;;;;;;;;;;;;-146.32;100.00;63746.28;4168945;28;20455;-69
2024/02/29 05:32:24;;;;;;;;;;;;;;;-146.32;100.00;63746.28;4170097;28;20024;-69
2024/02/29 05:34:26;;;;;;;;;;;;;;;-146.32;100.00;63746.28;4171405;28;20104;-70
2024/02/29 05:36:30;;;;;;;;;;;;;;;-146.32;100.00;63746.28;4170347;28;20035;-72
2024/02/29 05:38:31;;;;;;;;;;;;;;;-146.32;100.00;63746.28;4170472;28;20364;-69
2024/02/29 05:40:34;;;;;;;;;;;;;;;-146.32;100.00;63746.28;4169662;28;20031;-70
2024/02/29 05:42:36;;;;;;;;;;;;;;;-146.32;100.00;63746.28;4168806;28;20008;-68
2024/02/29 05:44:37;;;;;;;;;;;;;;;-146.32;100.00;63746.28;4170274;28;20306;-69
2024/02/29 05:46:39;;;;;;;;;;;;;;;-146.32;100.00;63746.28;4137680;28;20015;-70
2024/02/29 05:48:41;;;;;;;;;;;;;;;-146.32;100.00;63746.28;4170932;28;20434;-70
2024/02/29 05:50:43;;;;;;;;;;;;;;;-146.32;100.00;63746.28;4168319;28;20434;-72
2024/02/29 05:52:47;;;;;;;;;;;;;;;-146.32;100.00;63746.28;4169713;28;20012;-70
2024/02/29 05:54:49;;;;;;;;;;;;;;;-146.32;100.00;63746.28;4165008;28;20486;-69
2024/02/29 05:56:51;;;;;;;;;;;;;;;-146.32;100.00;63746.28;4167574;28;20023;-67
2024/02/29 05:58:52;;;;;;;;;;;;;;;-146.32;100.00;63746.28;4167497;28;20477;-68
2024/02/29 06:00:54;;;;;;;;;;;;;;;-146.32;100.00;63746.28;4168053;28;19963;-68
2024/02/29 06:02:56;;;;;;;;;;;;;;;-146.32;100.00;63746.28;4169377;28;20016;-69
2024/02/29 06:04:58;;;;;;;;;;;;;;;-146.32;100.00;63746.28;4153413;28;20143;-70
2024/02/29 06:07:00;;;;;;;;;;;;;;;-146.32;100.00;63746.28;4168397;28;20032;-69
2024/02/29 06:09:03;;;;;;;;;;;;;;;-146.32;100.00;63746.28;4168902;28;19956;-70
2024/02/29 06:11:05;;;;;;;;;;;;;;;-146.32;100.00;63746.28;4137765;28;20401;-69
2024/02/29 06:13:07;;;;;;;;;;;;;;;-146.32;100.00;63746.28;4169044;28;20020;-71
2024/02/29 06:15:10;;;;;;;;;;;;;;;-146.32;100.00;63746.28;4170623;28;19972;-69
2024/02/29 06:17:12;;;;;;;;;;;;;;;-146.32;100.00;63746.28;4170545;28;20023;-68
2024/02/29 06:19:14;;;;;;;;;;;;;;;-146.32;100.00;63746.28;4167617;28;20387;-70
2024/02/29 06:21:16;;;;;;;;;;;;;;;-146.32;100.00;63746.28;4170235;28;20489;-68
2024/02/29 06:23:18;;;;;;;;;;;;;;;-146.32;100.00;63746.28;4153895;28;20039;-68
2024/02/29 06:25:21;;;;;;;;;;;;;;;-146.32;100.00;63746.28;4168846;28;20513;-68
2024/02/29 06:27:24;;;;;;;;;;;;;;;-146.32;100.00;63746.28;4137767;28;20021;-70
2024/02/29 06:29:26;;;;;;;;;;;;;;;-146.32;100.00;63746.28;4168845;28;20044;-70
2024/02/29 06:31:28;;;;;;;;;;;;;;;-146.32;100.00;63746.28;4168766;28;20024;-70
2024/02/29 06:33:29;;;;;;;;;;;;;;;-146.32;100.00;63746.28;4168839;28;20064;-69
2024/02/29 06:35:31;;;;;;;;;;;;;;;-146.32;100.00;63746.28;4169782;28;20376;-70
2024/02/29 06:37:33;;;;;;;;;;;;;;;-146.32;100.00;63746.28;4168449;28;20004;-70
2024/02/29 06:39:35;;;;;;;;;;;;;;;-146.32;100.00;63746.28;4168837;28;20024;-71
2024/02/29 06:41:38;;;;;;;;;;;;;;;-146.32;100.00;63746.28;4168145;28;20024;-69
2024/02/29 06:43:40;;;;;;;;;;;;;;;-146.32;100.00;63746.28;4169983;28;20024;-69
2024/02/29 06:45:45;;;;;;;;;;;;;;;-146.32;100.00;63746.28;4170387;28;20370;-70
2024/02/29 06:47:46;;;;;;;;;;;;;;;-146.32;100.00;63746.28;4171347;28;20016;-69
2024/02/29 06:49:49;;;;;;;;;;;;;;;-146.32;100.00;63746.28;4172306;28;20031;-69
2024/02/29 06:51:52;;;;;;;;;;;;;;;-146.32;100.00;63746.28;4171958;28;20473;-70
2024/02/29 06:53:53;;;;;;;;;;;;;;;-146.32;100.00;63746.28;4171848;28;20004;-69
2024/02/29 06:55:55;;;;;;;;;;;;;;;-146.32;100.00;63746.28;4173583;28;20474;-69
2024/02/29 06:57:59;;;;;;;;;;;;;;;-146.32;100.00;63746.28;4173580;28;20019;-69
2024/02/29 07:00:02;;;;;;;;;;;;;;;-146.32;100.00;63746.28;4172735;28;20016;-70
2024/02/29 07:02:04;;;;;;;;;;;;;;;-146.32;100.00;63746.28;4170882;28;20044;-70
2024/02/29 07:04:07;;;;;;;;;;;;;;;-146.32;100.00;63746.28;4138337;28;20014;-70
2024/02/29 16:04:34;;;;;;;;;;;;;;;-146.32;100.00;63746.28;4142046;28;19945;-70
2024/02/29 16:06:35;;;;;;;;;;;;;;;-146.32;100.00;63746.28;4145499;28;20395;-71
2024/02/29 16:08:37;;;;;;;;;;;;;;;-146.32;100.00;63746.28;4145337;28;19988;-70
2024/02/29 16:10:39;;;;;;;;;;;;;;;-146.32;100.00;63746.28;4144409;28;20027;-70
2024/02/29 16:12:41;;;;;;;;;;;;;;;-146.32;100.00;63746.28;4124474;28;20020;-70
2024/02/29 16:14:43;;;;;;;;;;;;;;;-146.32;100.00;63746.28;4119896;28;20032;-71
2024/02/29 16:16:44;;;;;;;;;;;;;;;-146.32;100.00;63746.28;4123010;28;20371;-71
2024/02/29 16:18:46;;;;;;;;;;;;;;;-146.32;100.00;63746.28;4105931;28;20018;-70
2024/02/29 16:20:49;;;;;;;;;;;;;;;-146.32;100.00;63746.28;4123376;28;20017;-70
2024/02/29 16:22:51;;;;;;;;;;;;;;;-146.32;100.00;63746.28;4121447;28;20025;-71
2024/02/29 16:24:54;;;;;;;;;;;;;;;-146.32;100.00;63746.28;4124642;28;20012;-70
2024/02/29 16:26:56;;;;;;;;;;;;;;;-146.32;100.00;63746.28;4120860;28;19977;-70
2024/02/29 16:28:58;;;;;;;;;;;;;;;-146.32;100.00;63746.28;4122426;28;20481;-70
2024/02/29 16:30:59;;;;;;;;;;;;;;;-146.32;100.00;63746.28;4123484;28;20380;-70
2024/02/29 16:33:01;;;;;;;;;;;;;;;-146.32;100.00;63746.28;4121524;28;20033;-71
2024/02/29 16:35:03;;;;;;;;;;;;;;;-146.32;100.00;63746.28;4122564;28;20036;-71
2024/02/29 16:37:07;;;;;;;;;;;;;;;-146.32;100.00;63746.28;4123292;28;20013;-71
2024/02/29 16:39:09;;;;;;;;;;;;;;;-146.32;100.00;63746.28;4123575;28;20037;-70
2024/02/29 16:41:11;;;;;;;;;;;;;;;-146.32;100.00;63746.28;4122306;28;20020;-70
2024/02/29 16:43:20;;;;;;;;;;;;;;;-146.32;100.00;63746.28;4124003;28;20013;-70
2024/02/29 16:45:22;;;;;;;;;;;;;;;-146.32;100.00;63746.28;4123285;28;20045;-71
2024/02/29 16:47:23;;;;;;;;;;;;;;;-146.32;100.00;63746.28;4122639;28;20367;-70
2024/02/29 16:49:26;;;;;;;;;;;;;;;-146.32;100.00;63746.28;4104168;28;20017;-69
2024/02/29 16:51:27;;;;;;;;;;;;;;;-146.32;100.00;63746.28;4122708;28;20108;-70
2024/02/29 16:53:30;;;;;;;;;;;;;;;-146.32;100.00;63746.28;4122592;28;20017;-69
2024/02/29 16:55:32;;;;;;;;;;;;;;;-146.32;100.00;63746.28;4122661;28;20060;-70
2024/02/29 16:57:35;;;;;;;;;;;;;;;-146.32;100.00;63746.28;4121979;28;20013;-70
2024/02/29 16:59:38;;;;;;;;;;;;;;;-146.32;100.00;63746.28;4122469;28;20670;-70
2024/02/29 17:01:42;;;;;;;;;;;;;;;-146.32;100.00;63746.28;4123049;28;20013;-69
2024/02/29 17:03:44;;;;;;;;;;;;;;;-146.32;100.00;63746.28;4122674;28;20009;-68
2024/02/29 17:05:46;;;;;;;;;;;;;;;-146.32;100.00;63746.28;4123203;28;20356;-69
2024/02/29 17:07:49;;;;;;;;;;;;;;;-146.32;100.00;63746.28;4122113;28;19937;-70
2024/02/29 17:09:54;;;;;;;;;;;;;;;-146.32;100.00;63746.28;4121778;28;20029;-70
2024/02/29 17:11:56;;;;;;;;;;;;;;;-146.32;100.00;63746.28;4123642;28;19993;-70
2024/02/29 17:13:59;;;;;;;;;;;;;;;-146.32;100.00;63746.28;4122923;28;20065;-71
2024/02/29 17:16:01;;;;;;;;;;;;;;;-146.32;100.00;63746.28;4123312;28;19992;-70
2024/02/29 17:18:05;;;;;;;;;;;;;;;-146.32;100.00;63746.28;4123255;28;19997;-70
2024/02/29 17:20:07;;;;;;;;;;;;;;;-146.32;100.00;63746.28;4123760;28;20018;-69
2024/02/29 17:22:11;;;;;;;;;;;;;;;-146.32;100.00;63746.28;4122710;28;20025;-70
2024/02/29 17:24:13;;;;;;;;;;;;;;;-146.32;100.00;63746.28;4121710;28;19976;-69
2024/02/29 17:26:17;;;;;;;;;;;;;;;-146.32;100.00;63746.28;4122080;28;20025;-69
2024/02/29 17:28:19;;;;;;;;;;;;;;;-146.32;100.00;63746.28;4122814;28;20549;-69
2024/02/29 17:30:21;;;;;;;;;;;;;;;-146.32;100.00;63746.28;4121224;28;19997;-69
2024/02/29 17:32:26;;;;;;;;;;;;;;;-146.32;100.00;63746.28;4106112;28;19969;-71
2024/02/29 17:34:28;;;;;;;;;;;;;;;-146.32;100.00;63746.28;4121770;28;19926;-70
2024/02/29 17:36:29;;;;;;;;;;;;;;;-146.32;100.00;63746.28;4124261;28;19980;-69
2024/02/29 17:38:31;;;;;;;;;;;;;;;-146.32;100.00;63746.28;4124566;28;20388;-70
2024/02/29 17:40:33;;;;;;;;;;;;;;;-146.32;100.00;63746.28;4126576;28;19948;-69
2024/02/29 17:42:37;;;;;;;;;;;;;;;-146.32;100.00;63746.28;4124274;28;19970;-69
2024/02/29 17:44:39;;;;;;;;;;;;;;;-146.32;100.00;63746.28;4123562;28;19980;-70
2024/02/29 17:46:41;;;;;;;;;;;;;;;-146.32;100.00;63746.28;4122154;28;19933;-69
2024/02/29 17:48:43;;;;;;;;;;;;;;;-146.32;100.00;63746.28;4121952;28;20427;-70
2024/02/29 17:50:45;;;;;;;;;;;;;;;-146.32;100.00;63746.28;4123280;28;20032;-70
2024/02/29 17:52:47;;;;;;;;;;;;;;;-146.32;100.00;63746.28;4122628;28;20020;-69
2024/02/29 17:54:49;;;;;;;;;;;;;;;-146.32;100.00;63746.28;4122973;28;20029;-70
2024/02/29 17:56:51;;;;;;;;;;;;;;;-146.32;100.00;63746.28;4122415;28;20487;-71
2024/02/29 17:58:55;;;;;;;;;;;;;;;-146.32;100.00;63746.28;4121611;28;20016;-71
2024/02/29 18:00:57;;;;;;;;;;;;;;;-146.32;100.00;63746.28;4121265;28;20016;-69
2024/02/29 18:03:00;;;;;;;;;;;;;;;-146.32;100.00;63746.28;4122691;28;20064;-69
2024/02/29 18:05:02;;;;;;;;;;;;;;;-146.32;100.00;63746.28;4106451;28;20016;-70
2024/02/29 18:07:04;;;;;;;;;;;;;;;-146.32;100.00;63746.28;4120500;28;20032;-69
2024/02/29 18:09:10;;;;;;;;;;;;;;;-146.32;100.00;63746.28;4105602;28;20038;-68
2024/02/29 18:11:12;;;;;;;;;;;;;;;-146.32;100.00;63746.28;4122260;28;19926;-68
2024/02/29 18:13:13;;;;;;;;;;;;;;;-146.32;100.00;63746.28;4105104;28;20026;-69
2024/02/29 18:15:16;;;;;;;;;;;;;;;-146.32;100.00;63746.28;4121482;28;20416;-69
2024/02/29 18:17:18;;;;;;;;;;;;;;;-146.32;100.00;63746.28;4121770;28;20407;-69
2024/02/29 18:19:20;;;;;;;;;;;;;;;-146.32;100.00;63746.28;4121109;28;20048;-69
2024/02/29 18:21:22;;;;;;;;;;;;;;;-146.32;100.00;63746.28;4121435;28;20367;-69
2024/02/29 18:23:24;;;;;;;;;;;;;;;-146.32;100.00;63746.28;4122198;28;20016;-68
2024/02/29 18:25:28;;;;;;;;;;;;;;;-146.32;100.00;63746.28;4120745;28;20383;-69
2024/02/29 18:27:30;;;;;;;;;;;;;;;-146.32;100.00;63746.28;4123227;28;20057;-68
2024/02/29 18:29:35;;;;;;;;;;;;;;;-146.32;100.00;63746.28;4119599;28;20307;-69
2024/02/29 18:31:38;;;;;;;;;;;;;;;-146.32;100.00;63746.28;4121572;28;19985;-69
2024/02/29 18:33:44;;;;;;;;;;;;;;;-146.32;100.00;63746.28;4122385;28;20021;-69
2024/02/29 18:35:47;;;;;;;;;;;;;;;-146.32;100.00;63746.28;4122939;28;19926;-69
2024/02/29 18:37:50;;;;;;;;;;;;;;;-146.32;100.00;63746.28;4123011;28;19969;-70
2024/02/29 18:39:55;;;;;;;;;;;;;;;-146.32;100.00;63746.28;4106730;28;20301;-69
2024/02/29 18:41:57;;;;;;;;;;;;;;;-146.32;100.00;63746.28;4123687;28;20009;-71
2024/02/29 18:44:00;;;;;;;;;;;;;;;-146.32;100.00;63746.28;4123730;28;20338;-69
2024/02/29 18:46:02;;;;;;;;;;;;;;;-146.32;100.00;63746.28;4124297;28;20374;-68
2024/02/29 18:48:06;;;;;;;;;;;;;;;-146.32;100.00;63746.28;4123943;28;20442;-69
2024/02/29 18:50:08;;;;;;;;;;;;;;;-146.32;100.00;63746.28;4123777;28;20364;-69
2024/02/29 18:52:09;;;;;;;;;;;;;;;-146.32;100.00;63746.28;4123686;28;20025;-67
2024/02/29 18:54:11;;;;;;;;;;;;;;;-146.32;100.00;63746.28;4124461;28;20052;-69
2024/02/29 18:56:13;;;;;;;;;;;;;;;-146.32;100.00;63746.28;4124370;28;20020;-69
2024/02/29 18:58:15;;;;;;;;;;;;;;;-146.32;100.00;63746.28;4125148;28;20017;-69
2024/02/29 19:00:18;;;;;;;;;;;;;;;-146.32;100.00;63746.28;4124827;28;20009;-68
2024/02/29 19:02:18;;;;;;;;;;;;;;;-146.32;100.00;63746.28;4125008;28;20020;-69
2024/02/29 19:04:22;;;;;;;;;;;;;;;-146.32;100.00;63746.28;4124869;28;20022;-68
2024/02/29 19:06:24;;;;;;;;;;;;;;;-146.32;100.00;63746.28;4123510;28;20008;-68
2024/02/29 19:08:26;;;;;;;;;;;;;;;-146.32;100.00;63746.28;4124672;28;20030;-70
2024/02/29 19:10:28;;;;;;;;;;;;;;;-146.32;100.00;63746.28;4124932;28;20001;-68